Time;durP1;ratioP1;P1;durP2;ratioP2;P2;SDS_P1;SDS_P2;PMS_P1;PMS_P2;Temp;Humidity;BMP_temperature;BMP_pressure;BME280_temperature;BME280_humidity;BME280_pressure;Samples;Min_cycle;Max_cycle;Signal;HPM_P1;HPM_P2
2023/06/11 00:01:26;;;;;;;13.40;9.30;;;;;;;;;;6198778;28;20023;-87
2023/06/11 00:04:27;;;;;;;13.73;10.40;;;;;;;;;;6199365;28;20014;-87
2023/06/11 00:07:27;;;;;;;15.83;10.93;;;;;;;;;;6158972;28;20033;-87
2023/06/11 00:10:28;;;;;;;13.47;10.40;;;;;;;;;;6162721;28;20034;-87
2023/06/11 00:13:28;;;;;;;13.70;11.20;;;;;;;;;;6158313;28;20396;-87
2023/06/11 00:16:32;;;;;;;16.47;12.07;;;;;;;;;;6174789;28;20026;-87
2023/06/11 00:19:33;;;;;;;18.27;12.75;;;;;;;;;;6157114;28;20037;-87
2023/06/11 00:22:33;;;;;;;16.87;11.00;;;;;;;;;;6176531;28;20015;-88
2023/06/11 00:25:33;;;;;;;15.27;11.63;;;;;;;;;;6162019;28;20003;-88
2023/06/11 00:28:34;;;;;;;19.33;11.63;;;;;;;;;;6178075;28;20492;-87
2023/06/11 00:31:34;;;;;;;17.90;12.00;;;;;;;;;;6179444;28;20026;-87
2023/06/11 00:34:35;;;;;;;16.80;12.73;;;;;;;;;;6181092;28;20018;-87
2023/06/11 00:37:35;;;;;;;14.25;11.07;;;;;;;;;;6186574;28;20093;-88
2023/06/11 00:40:35;;;;;;;16.00;11.80;;;;;;;;;;6160204;28;20386;-87
2023/06/11 00:43:37;;;;;;;13.95;11.02;;;;;;;;;;6171331;28;20022;-87
2023/06/11 00:49:50;;;;;;;17.63;11.70;;;;;;;;;;6184475;23;20094;-90
2023/06/11 00:52:50;;;;;;;16.98;11.65;;;;;;;;;;6153545;28;20572;-90
2023/06/11 00:55:51;;;;;;;15.80;11.13;;;;;;;;;;6142812;28;20029;-90
2023/06/11 00:58:51;;;;;;;15.83;12.73;;;;;;;;;;6142479;28;20034;-90
2023/06/11 01:02:05;;;;;;;16.43;12.20;;;;;;;;;;6150255;28;20027;-90
2023/06/11 01:05:07;;;;;;;17.55;13.38;;;;;;;;;;6170742;28;20029;-90
2023/06/11 01:08:09;;;;;;;17.00;13.70;;;;;;;;;;6139568;28;20034;-90
2023/06/11 01:11:13;;;;;;;22.98;14.75;;;;;;;;;;6149534;28;20528;-90
2023/06/11 01:14:16;;;;;;;20.20;13.90;;;;;;;;;;6141231;28;20055;-89
2023/06/11 01:17:23;;;;;;;18.17;13.52;;;;;;;;;;6147367;28;20026;-90
2023/06/11 01:20:42;;;;;;;19.20;12.75;;;;;;;;;;6151585;28;20035;-90
2023/06/11 01:23:46;;;;;;;18.02;15.27;;;;;;;;;;6149269;28;20093;-90
2023/06/11 01:26:53;;;;;;;22.23;13.68;;;;;;;;;;6141383;28;20027;-91
2023/06/11 01:29:56;;;;;;;18.67;14.93;;;;;;;;;;6142395;28;20059;-91
2023/06/11 01:32:56;;;;;;;17.40;14.20;;;;;;;;;;6145746;28;20023;-90
2023/06/11 01:35:58;;;;;;;16.83;13.03;;;;;;;;;;6154679;28;20081;-90
2023/06/11 01:39:01;;;;;;;18.02;13.13;;;;;;;;;;6142594;28;20035;-90
2023/06/11 01:42:01;;;;;;;17.88;12.77;;;;;;;;;;6154694;28;20101;-91
2023/06/11 01:45:02;;;;;;;20.97;14.03;;;;;;;;;;6147181;28;20489;-90
2023/06/11 01:48:02;;;;;;;18.83;14.43;;;;;;;;;;6135956;28;20106;-91
2023/06/11 01:51:03;;;;;;;18.83;14.27;;;;;;;;;;6151452;28;20041;-90
2023/06/11 01:54:03;;;;;;;19.97;15.10;;;;;;;;;;6147391;28;20106;-90
2023/06/11 01:57:04;;;;;;;19.00;13.70;;;;;;;;;;6143034;28;20015;-91
2023/06/11 02:00:09;;;;;;;22.37;15.47;;;;;;;;;;6143728;28;20042;-90
2023/06/11 02:03:09;;;;;;;17.33;13.05;;;;;;;;;;6155898;28;20043;-91
2023/06/11 02:06:10;;;;;;;19.20;14.80;;;;;;;;;;6142360;28;20011;-88
2023/06/11 02:09:10;;;;;;;22.53;15.27;;;;;;;;;;6151714;28;20559;-90
2023/06/11 02:12:11;;;;;;;20.57;15.70;;;;;;;;;;6158787;28;20036;-90
2023/06/11 02:15:13;;;;;;;21.83;15.87;;;;;;;;;;6132909;28;20433;-90
2023/06/11 02:18:13;;;;;;;;;;;;;;;;;;6140505;28;20394;-89
2023/06/11 02:21:13;;;;;;;20.75;15.88;;;;;;;;;;6151961;28;19917;-89
2023/06/11 02:24:13;;;;;;;22.10;16.47;;;;;;;;;;6148992;28;20028;-90
2023/06/11 02:27:13;;;;;;;24.60;16.20;;;;;;;;;;6138019;28;20027;-89
2023/06/11 02:30:14;;;;;;;19.60;15.77;;;;;;;;;;6145879;28;20066;-89
2023/06/11 02:33:15;;;;;;;23.37;16.80;;;;;;;;;;6142035;28;20028;-89
2023/06/11 02:36:15;;;;;;;21.77;16.30;;;;;;;;;;6161619;28;20031;-89
2023/06/11 02:39:15;;;;;;;20.40;16.00;;;;;;;;;;6146535;28;20038;-89
2023/06/11 02:42:16;;;;;;;24.37;18.10;;;;;;;;;;6151426;28;20019;-90
2023/06/11 02:45:16;;;;;;;25.10;18.20;;;;;;;;;;6140447;28;20019;-90
2023/06/11 02:48:16;;;;;;;23.03;17.00;;;;;;;;;;6153210;28;20595;-90
2023/06/11 02:51:16;;;;;;;22.80;15.47;;;;;;;;;;6150667;28;20061;-89
2023/06/11 02:54:17;;;;;;;22.93;17.90;;;;;;;;;;6163095;28;20462;-89
2023/06/11 02:57:17;;;;;;;22.03;17.70;;;;;;;;;;6144917;28;20023;-89
2023/06/11 03:00:17;;;;;;;21.57;16.00;;;;;;;;;;6138989;28;20031;-89
2023/06/11 03:03:17;;;;;;;22.63;16.60;;;;;;;;;;6139528;28;20054;-89
2023/06/11 03:06:18;;;;;;;25.97;16.70;;;;;;;;;;6147222;28;20033;-89
2023/06/11 03:09:18;;;;;;;21.07;15.70;;;;;;;;;;6159146;28;20035;-89
2023/06/11 03:12:20;;;;;;;25.90;17.03;;;;;;;;;;6144852;28;20042;-90
2023/06/11 03:15:20;;;;;;;;;;;;;;;;;;6134208;28;20067;-89
2023/06/11 03:18:21;;;;;;;20.67;16.75;;;;;;;;;;6133791;28;19910;-90
2023/06/11 03:21:22;;;;;;;20.77;15.70;;;;;;;;;;6140192;28;20027;-89
2023/06/11 03:24:22;;;;;;;17.97;15.10;;;;;;;;;;6157316;28;20050;-89
2023/06/11 03:27:22;;;;;;;19.47;14.70;;;;;;;;;;6151032;28;20058;-89
2023/06/11 03:30:24;;;;;;;17.27;14.50;;;;;;;;;;6146987;28;20031;-89
2023/06/11 03:33:24;;;;;;;;;;;;;;;;;;6163801;28;20023;-89
2023/06/11 03:36:24;;;;;;;18.10;13.18;;;;;;;;;;6167710;28;19913;-90
2023/06/11 03:39:24;;;;;;;17.80;13.27;;;;;;;;;;6144108;28;20478;-90
2023/06/11 03:42:25;;;;;;;16.60;13.10;;;;;;;;;;6166535;28;20098;-89
2023/06/11 03:45:25;;;;;;;16.13;12.43;;;;;;;;;;6141731;28;20030;-90
2023/06/11 03:48:27;;;;;;;14.90;10.90;;;;;;;;;;6140968;28;20046;-90
2023/06/11 03:51:27;;;;;;;20.52;11.63;;;;;;;;;;6153386;28;20414;-91
2023/06/11 03:54:28;;;;;;;14.80;11.55;;;;;;;;;;6167405;28;20043;-91
2023/06/11 03:57:29;;;;;;;12.00;10.30;;;;;;;;;;6177093;28;20041;-91
2023/06/11 04:00:32;;;;;;;16.58;11.73;;;;;;;;;;6176815;28;20054;-91
2023/06/11 04:03:32;;;;;;;16.80;11.93;;;;;;;;;;6153390;28;20048;-91
2023/06/11 04:06:39;;;;;;;14.10;10.77;;;;;;;;;;6149921;28;20035;-91
2023/06/11 04:09:40;;;;;;;14.63;10.85;;;;;;;;;;6153576;28;20034;-90
2023/06/11 04:12:40;;;;;;;14.50;11.63;;;;;;;;;;6161270;28;20034;-91
2023/06/11 04:15:41;;;;;;;17.88;10.98;;;;;;;;;;6176316;28;20054;-91
2023/06/11 04:18:44;;;;;;;19.23;11.17;;;;;;;;;;6154796;28;20046;-92
2023/06/11 04:21:44;;;;;;;15.40;11.23;;;;;;;;;;6147228;28;20015;-91
2023/06/11 04:24:45;;;;;;;13.47;10.80;;;;;;;;;;6139963;28;20067;-91
2023/06/11 04:27:49;;;;;;;13.98;11.20;;;;;;;;;;6154330;28;20047;-92
2023/06/11 04:30:49;;;;;;;17.83;11.20;;;;;;;;;;6165019;28;20031;-92
2023/06/11 04:33:50;;;;;;;13.50;10.93;;;;;;;;;;6168878;28;20031;-91
2023/06/11 04:36:53;;;;;;;14.05;11.05;;;;;;;;;;6165888;28;20025;-92
2023/06/11 04:39:53;;;;;;;13.85;11.00;;;;;;;;;;6173491;28;20031;-92
2023/06/11 04:42:54;;;;;;;14.57;10.40;;;;;;;;;;6166261;28;20027;-93
2023/06/11 04:45:56;;;;;;;14.67;9.20;;;;;;;;;;6168795;28;20019;-91
2023/06/11 04:48:58;;;;;;;13.05;9.00;;;;;;;;;;6191924;28;20026;-92
2023/06/11 04:51:59;;;;;;;13.60;9.45;;;;;;;;;;6167948;28;20027;-91
2023/06/11 04:55:01;;;;;;;15.93;10.38;;;;;;;;;;6175414;28;20021;-92
2023/06/11 04:58:01;;;;;;;13.88;10.32;;;;;;;;;;6161748;28;20031;-93
2023/06/11 05:01:05;;;;;;;12.73;9.60;;;;;;;;;;6178601;28;20007;-91
2023/06/11 05:13:33;;;;;;;14.98;10.13;;;;;;;;;;6139188;28;20039;-85
2023/06/11 05:16:34;;;;;;;11.87;9.63;;;;;;;;;;6138456;28;20023;-85
2023/06/11 05:19:34;;;;;;;12.60;10.17;;;;;;;;;;6433494;23;20406;-91
2023/06/11 05:22:35;;;;;;;11.23;8.77;;;;;;;;;;6169699;28;20066;-92
2023/06/11 05:25:35;;;;;;;11.93;9.13;;;;;;;;;;6168173;28;20027;-91
2023/06/11 05:28:37;;;;;;;13.70;9.47;;;;;;;;;;6187342;28;20327;-92
2023/06/11 05:31:38;;;;;;;13.57;9.20;;;;;;;;;;6201170;23;20062;-89
2023/06/11 05:34:39;;;;;;;13.67;9.07;;;;;;;;;;6176245;28;20039;-89
2023/06/11 05:37:39;;;;;;;;;;;;;;;;;;6176240;28;20014;-89
2023/06/11 05:40:39;;;;;;;12.45;9.07;;;;;;;;;;6177736;28;19984;-90
2023/06/11 05:43:40;;;;;;;10.47;8.23;;;;;;;;;;6176006;28;20027;-89
2023/06/11 05:46:40;;;;;;;12.75;8.70;;;;;;;;;;6179958;28;20073;-90
2023/06/11 05:49:40;;;;;;;11.38;7.65;;;;;;;;;;6179382;28;20037;-90
2023/06/11 05:52:41;;;;;;;11.23;7.83;;;;;;;;;;6179647;28;20023;-89
2023/06/11 05:55:41;;;;;;;9.07;7.47;;;;;;;;;;6176737;28;20034;-90
2023/06/11 05:58:41;;;;;;;13.50;7.53;;;;;;;;;;6181043;28;20102;-90
2023/06/11 06:01:45;;;;;;;15.43;7.90;;;;;;;;;;6179679;28;20019;-90
2023/06/11 06:04:45;;;;;;;12.45;7.10;;;;;;;;;;6177408;28;20034;-90
2023/06/11 06:07:46;;;;;;;13.50;7.30;;;;;;;;;;6146402;28;20053;-90
2023/06/11 06:10:46;;;;;;;11.63;7.50;;;;;;;;;;6137646;28;20054;-90
2023/06/11 06:13:46;;;;;;;12.37;7.07;;;;;;;;;;6148322;28;20485;-89
2023/06/11 06:16:46;;;;;;;11.15;6.53;;;;;;;;;;6152281;28;20015;-89
2023/06/11 06:19:46;;;;;;;8.97;7.17;;;;;;;;;;6130212;28;20107;-88
2023/06/11 06:22:48;;;;;;;16.20;7.23;;;;;;;;;;6133457;28;20450;-89
2023/06/11 06:25:48;;;;;;;9.18;6.35;;;;;;;;;;6132133;28;20401;-88
2023/06/11 06:28:48;;;;;;;8.33;5.97;;;;;;;;;;6131139;28;20023;-89
2023/06/11 06:31:49;;;;;;;9.23;6.87;;;;;;;;;;6130687;28;20063;-88
2023/06/11 06:34:50;;;;;;;11.25;6.00;;;;;;;;;;6130317;28;20035;-89
2023/06/11 06:37:50;;;;;;;7.43;6.03;;;;;;;;;;6144352;28;20023;-89
2023/06/11 06:40:50;;;;;;;10.50;6.32;;;;;;;;;;6148733;28;20030;-89
2023/06/11 06:43:50;;;;;;;9.95;6.57;;;;;;;;;;6148575;28;20126;-89
2023/06/11 06:46:53;;;;;;;8.93;6.50;;;;;;;;;;6155315;28;20482;-89
2023/06/11 06:49:53;;;;;;;8.10;5.82;;;;;;;;;;6131989;28;20112;-89
2023/06/11 06:52:53;;;;;;;8.43;6.33;;;;;;;;;;6146187;28;20494;-89
2023/06/11 06:55:54;;;;;;;8.73;5.20;;;;;;;;;;6158444;28;20059;-88
2023/06/11 06:58:54;;;;;;;7.70;5.28;;;;;;;;;;6162011;28;20042;-88
2023/06/11 07:01:54;;;;;;;10.93;6.07;;;;;;;;;;6164867;28;20638;-88
2023/06/11 07:04:55;;;;;;;8.05;5.53;;;;;;;;;;6173043;28;20050;-87
2023/06/11 07:07:55;;;;;;;8.20;5.87;;;;;;;;;;6174284;28;20102;-87
2023/06/11 07:10:55;;;;;;;7.00;5.43;;;;;;;;;;6169514;28;20027;-88
2023/06/11 07:13:56;;;;;;;;;;;;;;;;;;6171512;28;20133;-88
2023/06/11 07:16:56;;;;;;;8.77;5.30;;;;;;;;;;6162943;28;19921;-88
2023/06/11 07:19:56;;;;;;;;;;;;;;;;;;6150880;28;20042;-88
2023/06/11 07:22:59;;;;;;;8.43;5.93;;;;;;;;;;6165654;28;19914;-88
2023/06/11 07:26:00;;;;;;;8.55;5.32;;;;;;;;;;6165691;28;20023;-88
2023/06/11 07:29:00;;;;;;;7.60;4.82;;;;;;;;;;6164410;28;20035;-88
2023/06/11 07:32:00;;;;;;;8.97;5.20;;;;;;;;;;6169242;28;20055;-88
2023/06/11 07:35:01;;;;;;;10.33;5.53;;;;;;;;;;6170814;28;20290;-88
2023/06/11 07:38:01;;;;;;;;;;;;;;;;;;6162166;28;20031;-87
2023/06/11 07:41:01;;;;;;;8.38;5.25;;;;;;;;;;6167540;28;19926;-88
2023/06/11 07:44:01;;;;;;;;;;;;;;;;;;6172779;28;20033;-89
2023/06/11 07:47:02;;;;;;;11.40;5.63;;;;;;;;;;6155031;28;19915;-89
2023/06/11 07:50:02;;;;;;;;;;;;;;;;;;6153105;28;20034;-89
2023/06/11 07:53:02;;;;;;;8.57;4.50;;;;;;;;;;6151328;28;20396;-89
2023/06/11 07:56:03;;;;;;;11.53;5.53;;;;;;;;;;6151887;28;20026;-89
2023/06/11 07:59:03;;;;;;;7.97;4.73;;;;;;;;;;6151419;28;20688;-90
2023/06/11 08:02:03;;;;;;;7.60;5.27;;;;;;;;;;6154534;28;20044;-90
2023/06/11 08:05:03;;;;;;;7.10;4.93;;;;;;;;;;6157530;28;20019;-90
2023/06/11 08:08:04;;;;;;;9.00;4.87;;;;;;;;;;6142600;28;20528;-89
2023/06/11 08:11:05;;;;;;;9.18;5.88;;;;;;;;;;6152860;28;20282;-89
2023/06/11 08:14:05;;;;;;;;;;;;;;;;;;6161628;28;20063;-89
2023/06/11 08:17:05;;;;;;;7.30;5.25;;;;;;;;;;6162786;28;19917;-89
2023/06/11 08:20:07;;;;;;;6.77;4.73;;;;;;;;;;6154706;28;20112;-89
2023/06/11 08:23:07;;;;;;;9.38;5.20;;;;;;;;;;6157021;28;20027;-89
2023/06/11 08:26:09;;;;;;;9.40;4.38;;;;;;;;;;6156279;28;20038;-89
2023/06/11 08:29:09;;;;;;;6.70;4.60;;;;;;;;;;6151548;28;20019;-90
2023/06/11 08:32:09;;;;;;;7.72;4.90;;;;;;;;;;6158620;28;20137;-90
2023/06/11 08:35:09;;;;;;;7.17;5.13;;;;;;;;;;6153713;28;20501;-90
2023/06/11 08:38:11;;;;;;;;;;;;;;;;;;6137116;28;20023;-89
2023/06/11 08:41:11;;;;;;;8.47;4.47;;;;;;;;;;6158890;28;19922;-90
2023/06/11 08:44:11;;;;;;;5.70;4.07;;;;;;;;;;6133904;28;20023;-89
2023/06/11 08:47:12;;;;;;;8.43;4.67;;;;;;;;;;6160204;28;20258;-89
2023/06/11 08:50:13;;;;;;;;;;;;;;;;;;6131761;28;20060;-90
2023/06/11 08:53:20;;;;;;;6.60;4.35;;;;;;;;;;6147015;28;19917;-89
2023/06/11 08:56:21;;;;;;;7.80;4.63;;;;;;;;;;6140237;28;20046;-89
2023/06/11 08:59:21;;;;;;;9.18;4.70;;;;;;;;;;6153185;28;20122;-89
2023/06/11 09:02:21;;;;;;;;;;;;;;;;;;6129584;28;20027;-89
2023/06/11 09:05:22;;;;;;;7.50;4.88;;;;;;;;;;6147878;28;20053;-88
2023/06/11 09:08:22;;;;;;;13.73;7.28;;;;;;;;;;6149379;28;20397;-88
2023/06/11 09:11:23;;;;;;;13.30;7.40;;;;;;;;;;6137800;28;20038;-88
2023/06/11 09:14:23;;;;;;;12.27;7.37;;;;;;;;;;6173785;28;20026;-88
2023/06/11 09:17:23;;;;;;;10.20;6.10;;;;;;;;;;6161420;28;20027;-89
2023/06/11 09:20:23;;;;;;;11.07;5.33;;;;;;;;;;6130413;28;20062;-88
2023/06/11 09:23:24;;;;;;;7.03;4.68;;;;;;;;;;6131197;28;20020;-89
2023/06/11 09:26:28;;;;;;;7.87;4.70;;;;;;;;;;6152082;28;20494;-89
2023/06/11 09:29:28;;;;;;;6.63;5.07;;;;;;;;;;6155024;28;20031;-88
2023/06/11 09:32:28;;;;;;;8.40;4.13;;;;;;;;;;6163274;28;20054;-88
2023/06/11 09:35:28;;;;;;;8.03;5.23;;;;;;;;;;6151705;28;20028;-88
2023/06/11 09:38:32;;;;;;;8.13;5.13;;;;;;;;;;6155924;28;20035;-89
2023/06/11 09:41:33;;;;;;;7.55;4.80;;;;;;;;;;6132113;28;20019;-88
2023/06/11 09:44:33;;;;;;;6.85;4.57;;;;;;;;;;6162473;28;20047;-88
2023/06/11 09:47:35;;;;;;;9.60;3.87;;;;;;;;;;6151385;28;20070;-88
2023/06/11 09:50:36;;;;;;;6.95;5.30;;;;;;;;;;6112982;28;20377;-88
2023/06/11 09:53:38;;;;;;;9.70;4.93;;;;;;;;;;6155629;28;20027;-88
2023/06/11 09:56:39;;;;;;;9.63;3.70;;;;;;;;;;6147942;28;20490;-88
2023/06/11 09:59:39;;;;;;;10.40;5.13;;;;;;;;;;6156816;28;20023;-88
2023/06/11 10:02:40;;;;;;;8.07;4.82;;;;;;;;;;6149314;28;20054;-88
2023/06/11 10:05:41;;;;;;;6.05;4.05;;;;;;;;;;6138517;28;20470;-89
2023/06/11 10:08:43;;;;;;;11.03;4.80;;;;;;;;;;6147904;28;20059;-89
2023/06/11 10:11:44;;;;;;;10.68;5.00;;;;;;;;;;6168491;28;20367;-89
2023/06/11 10:14:54;;;;;;;7.70;4.15;;;;;;;;;;6169328;28;20086;-89
2023/06/11 10:17:56;;;;;;;5.20;3.95;;;;;;;;;;6145876;28;20051;-88
2023/06/11 10:24:06;;;;;;;9.23;4.10;;;;;;;;;;6614322;23;20703;-90
2023/06/11 10:27:08;;;;;;;9.23;4.80;;;;;;;;;;6172212;28;20026;-90
2023/06/11 10:30:08;;;;;;;6.95;4.38;;;;;;;;;;6165433;28;20015;-90
2023/06/11 10:33:10;;;;;;;6.68;4.00;;;;;;;;;;6175405;28;20025;-90
2023/06/11 10:36:30;;;;;;;6.72;4.35;;;;;;;;;;6171136;28;20076;-90
2023/06/11 11:00:07;;;;;;;6.85;3.67;;;;;;;;;;6172563;28;20125;-88
2023/06/11 11:03:09;;;;;;;9.15;4.35;;;;;;;;;;6173027;28;20054;-88
2023/06/11 11:06:09;;;;;;;6.07;3.70;;;;;;;;;;6174532;28;20035;-88
2023/06/11 11:09:11;;;;;;;5.17;4.10;;;;;;;;;;6159872;28;20045;-92
2023/06/11 11:12:12;;;;;;;7.00;4.10;;;;;;;;;;6152477;28;20284;-91
2023/06/11 11:15:12;;;;;;;5.95;3.38;;;;;;;;;;6157922;28;20031;-93
2023/06/11 11:18:12;;;;;;;8.90;4.03;;;;;;;;;;6151473;28;20113;-92
2023/06/11 11:21:13;;;;;;;8.30;5.20;;;;;;;;;;6141167;28;20046;-91
2023/06/11 11:24:13;;;;;;;9.82;4.47;;;;;;;;;;6140581;28;20023;-92
2023/06/11 11:27:13;;;;;;;4.60;3.93;;;;;;;;;;6140504;28;20019;-92
2023/06/11 11:30:15;;;;;;;7.57;4.38;;;;;;;;;;6156009;28;20381;-92
2023/06/11 11:33:15;;;;;;;6.45;3.58;;;;;;;;;;6142856;28;20058;-91
2023/06/11 11:36:15;;;;;;;4.83;3.70;;;;;;;;;;6154621;28;20027;-92
2023/06/11 11:39:15;;;;;;;4.40;3.23;;;;;;;;;;6134842;28;20146;-91
2023/06/11 11:42:16;;;;;;;6.60;3.60;;;;;;;;;;6143100;28;20050;-92
2023/06/11 11:45:19;;;;;;;4.93;3.40;;;;;;;;;;6141801;28;20027;-92
2023/06/11 11:48:19;;;;;;;6.75;3.97;;;;;;;;;;6146385;28;20027;-88
2023/06/11 11:51:20;;;;;;;6.60;3.93;;;;;;;;;;6149556;28;20066;-88
2023/06/11 11:54:20;;;;;;;10.32;3.92;;;;;;;;;;6133260;28;20050;-88
2023/06/11 11:57:21;;;;;;;8.88;4.53;;;;;;;;;;6150137;28;20087;-88
2023/06/11 12:00:25;;;;;;;6.82;4.07;;;;;;;;;;6128353;28;20558;-88
2023/06/11 12:03:26;;;;;;;5.22;3.22;;;;;;;;;;6135276;28;20015;-88
2023/06/11 12:06:26;;;;;;;6.70;3.60;;;;;;;;;;6133294;28;20049;-88
2023/06/11 12:09:27;;;;;;;5.38;3.50;;;;;;;;;;6157428;28;20031;-88
2023/06/11 12:12:27;;;;;;;5.45;3.55;;;;;;;;;;6143698;28;20034;-88
2023/06/11 12:15:29;;;;;;;8.30;3.97;;;;;;;;;;6141395;28;20498;-88
2023/06/11 12:18:29;;;;;;;10.70;5.72;;;;;;;;;;6136580;28;20023;-91
2023/06/11 12:21:32;;;;;;;7.17;3.90;;;;;;;;;;6136448;28;20051;-90
2023/06/11 12:24:36;;;;;;;6.40;3.28;;;;;;;;;;6135506;28;20457;-91
2023/06/11 12:27:37;;;;;;;5.68;4.05;;;;;;;;;;6137880;28;20023;-92
2023/06/11 12:30:37;;;;;;;;;;;;;;;;;;6129277;28;20027;-91
2023/06/11 12:33:39;;;;;;;7.97;3.78;;;;;;;;;;6136654;28;19996;-91
2023/06/11 12:36:39;;;;;;;7.03;3.42;;;;;;;;;;6134810;28;20556;-91
2023/06/11 12:39:43;;;;;;;8.38;4.63;;;;;;;;;;6134208;28;20027;-91
2023/06/11 12:42:44;;;;;;;6.07;4.03;;;;;;;;;;6138412;28;20019;-91
2023/06/11 12:45:44;;;;;;;;;;;;;;;;;;6147232;28;20011;-92
2023/06/11 12:48:44;;;;;;;8.80;4.15;;;;;;;;;;6148361;28;19990;-92
2023/06/11 12:51:46;;;;;;;;;;;;;;;;;;6143324;28;20074;-91
2023/06/11 12:54:46;;;;;;;8.55;4.35;;;;;;;;;;6146714;28;19911;-92
2023/06/11 12:57:48;;;;;;;5.60;3.60;;;;;;;;;;6132639;28;20090;-91
2023/06/11 13:00:48;;;;;;;6.82;3.58;;;;;;;;;;6129747;28;20023;-90
2023/06/11 13:03:48;;;;;;;4.67;3.70;;;;;;;;;;6145674;28;20544;-90
2023/06/11 13:06:49;;;;;;;11.25;4.32;;;;;;;;;;6131127;28;20015;-91
2023/06/11 13:09:49;;;;;;;;;;;;;;;;;;6135818;28;20371;-91
2023/06/11 13:12:51;;;;;;;7.18;4.03;;;;;;;;;;6141823;28;19910;-91
2023/06/11 13:15:51;;;;;;;7.95;3.83;;;;;;;;;;6147036;28;20829;-91
2023/06/11 13:18:52;;;;;;;;;;;;;;;;;;6150461;28;20299;-93
2023/06/11 13:21:52;;;;;;;6.10;3.40;;;;;;;;;;6152174;28;19910;-92
2023/06/11 13:24:54;;;;;;;6.70;3.90;;;;;;;;;;6141769;28;20437;-92
2023/06/11 13:27:54;;;;;;;8.68;3.70;;;;;;;;;;6144360;28;20375;-92
2023/06/11 13:30:59;;;;;;;7.03;4.23;;;;;;;;;;6144333;28;20030;-90
2023/06/11 13:33:59;;;;;;;6.15;4.03;;;;;;;;;;6148721;28;20016;-91
2023/06/11 13:36:59;;;;;;;;;;;;;;;;;;6132840;28;20034;-91
2023/06/11 13:40:00;;;;;;;4.77;3.67;;;;;;;;;;6128874;28;19966;-90
2023/06/11 13:43:00;;;;;;;;;;;;;;;;;;6139245;28;20705;-90
2023/06/11 13:46:00;;;;;;;4.07;3.45;;;;;;;;;;6165538;28;20283;-92
2023/06/11 13:49:02;;;;;;;5.93;3.97;;;;;;;;;;6155764;28;20038;-89
2023/06/11 13:52:02;;;;;;;5.18;3.53;;;;;;;;;;6146060;28;20354;-90
2023/06/11 13:55:03;;;;;;;5.80;3.57;;;;;;;;;;6132412;28;20023;-91
2023/06/11 13:58:03;;;;;;;4.40;3.47;;;;;;;;;;6123755;28;20291;-91
2023/06/11 14:01:04;;;;;;;4.82;3.38;;;;;;;;;;6139811;28;20023;-92
2023/06/11 14:04:04;;;;;;;6.53;3.73;;;;;;;;;;6138035;28;20018;-93
2023/06/11 14:07:04;;;;;;;6.60;3.78;;;;;;;;;;6131563;28;20011;-89
2023/06/11 14:10:05;;;;;;;4.53;3.10;;;;;;;;;;6129697;28;20474;-89
2023/06/11 14:13:05;;;;;;;6.93;3.67;;;;;;;;;;6131076;28;20274;-89
2023/06/11 14:16:05;;;;;;;6.00;3.10;;;;;;;;;;6126496;28;20027;-90
2023/06/11 14:19:09;;;;;;;6.28;3.38;;;;;;;;;;6156993;28;20580;-90
2023/06/11 14:22:09;;;;;;;5.18;3.20;;;;;;;;;;6133905;28;20103;-89
2023/06/11 14:25:09;;;;;;;6.47;3.53;;;;;;;;;;6152759;28;20015;-91
2023/06/11 14:28:10;;;;;;;10.05;3.72;;;;;;;;;;6142192;28;20045;-90
2023/06/11 14:31:10;;;;;;;5.95;3.65;;;;;;;;;;6129638;28;20463;-90
2023/06/11 14:34:10;;;;;;;6.53;3.37;;;;;;;;;;6144197;28;20027;-90
2023/06/11 14:37:11;;;;;;;6.77;3.43;;;;;;;;;;6127834;28;20082;-89
2023/06/11 14:40:11;;;;;;;5.30;3.60;;;;;;;;;;6150818;28;20034;-89
2023/06/11 14:43:11;;;;;;;5.95;3.72;;;;;;;;;;6131348;28;20031;-89
2023/06/11 14:46:12;;;;;;;5.97;3.75;;;;;;;;;;6130829;28;20028;-89
2023/06/11 14:49:16;;;;;;;5.43;3.93;;;;;;;;;;6154817;28;20788;-90
2023/06/11 14:52:17;;;;;;;4.30;2.80;;;;;;;;;;6139771;28;20117;-88
2023/06/11 14:55:17;;;;;;;11.63;4.33;;;;;;;;;;6140737;28;20115;-90
2023/06/11 14:58:17;;;;;;;;;;;;;;;;;;6149405;28;20302;-91
2023/06/11 15:01:17;;;;;;;5.90;3.80;;;;;;;;;;6156547;28;19924;-91
2023/06/11 15:04:18;;;;;;;;;;;;;;;;;;6150751;28;20047;-91
2023/06/11 15:07:18;;;;;;;7.22;3.85;;;;;;;;;;6162546;28;19914;-91
2023/06/11 15:10:18;;;;;;;;;;;;;;;;;;6151381;28;20114;-90
2023/06/11 15:13:20;;;;;;;6.53;3.75;;;;;;;;;;6159010;28;20287;-90
2023/06/11 15:16:20;;;;;;;5.55;3.83;;;;;;;;;;6161436;28;20031;-91
2023/06/11 15:19:20;;;;;;;9.23;3.70;;;;;;;;;;6134596;28;20034;-93
2023/06/11 15:22:20;;;;;;;7.13;4.27;;;;;;;;;;6128425;28;20030;-92
2023/06/11 15:25:21;;;;;;;6.57;3.40;;;;;;;;;;6130745;28;20027;-93
2023/06/11 15:28:21;;;;;;;7.03;3.77;;;;;;;;;;6136309;28;20023;-93
2023/06/11 15:31:21;;;;;;;5.88;3.58;;;;;;;;;;6136050;28;20067;-93
2023/06/11 15:34:22;;;;;;;7.57;3.27;;;;;;;;;;6151173;28;20038;-92
2023/06/11 15:37:22;;;;;;;5.77;3.30;;;;;;;;;;6162402;28;20015;-92
2023/06/11 15:40:22;;;;;;;8.37;5.00;;;;;;;;;;6151547;28;20085;-93
2023/06/11 15:43:22;;;;;;;6.53;3.93;;;;;;;;;;6135688;28;20617;-94
2023/06/11 15:46:23;;;;;;;6.13;4.07;;;;;;;;;;6129201;28;20027;-91
2023/06/11 15:49:23;;;;;;;4.40;3.03;;;;;;;;;;6151487;28;20058;-90
2023/06/11 15:52:23;;;;;;;6.03;3.90;;;;;;;;;;6135880;28;20020;-92
2023/06/11 15:55:23;;;;;;;7.97;3.60;;;;;;;;;;6138570;28;20109;-90
2023/06/11 15:58:24;;;;;;;6.90;3.43;;;;;;;;;;6150260;28;20039;-92
2023/06/11 16:01:24;;;;;;;4.17;3.40;;;;;;;;;;6143448;28;20069;-92
2023/06/11 16:04:24;;;;;;;6.17;3.43;;;;;;;;;;6152699;28;20015;-92
2023/06/11 16:07:24;;;;;;;6.27;3.10;;;;;;;;;;6158529;28;20077;-92
2023/06/11 16:10:25;;;;;;;6.97;3.67;;;;;;;;;;6136821;28;20027;-93
2023/06/11 16:13:25;;;;;;;7.23;4.23;;;;;;;;;;6133558;28;20042;-92
2023/06/11 16:16:25;;;;;;;7.67;3.70;;;;;;;;;;6132072;28;20031;-91
2023/06/11 16:19:27;;;;;;;6.57;2.97;;;;;;;;;;6139089;28;20367;-91
2023/06/11 16:22:28;;;;;;;6.28;4.03;;;;;;;;;;6134587;29;20055;-90
2023/06/11 16:25:28;;;;;;;;;;;;;;;;;;6132918;28;20074;-91
2023/06/11 16:28:28;;;;;;;6.65;3.20;;;;;;;;;;6132498;28;19989;-90
2023/06/11 16:31:29;;;;;;;9.37;4.30;;;;;;;;;;6134824;28;20018;-91
2023/06/11 16:34:29;;;;;;;9.73;4.03;;;;;;;;;;6141760;28;20023;-91
2023/06/11 16:37:31;;;;;;;11.63;4.07;;;;;;;;;;6141718;28;20023;-92
2023/06/11 16:40:31;;;;;;;5.45;3.63;;;;;;;;;;6156545;28;20030;-93
2023/06/11 16:43:32;;;;;;;5.80;3.80;;;;;;;;;;6135871;28;20482;-93
2023/06/11 16:46:32;;;;;;;6.50;4.07;;;;;;;;;;6130200;28;20035;-91
2023/06/11 16:49:32;;;;;;;7.87;3.70;;;;;;;;;;6139808;28;20110;-92
2023/06/11 16:52:35;;;;;;;7.63;3.40;;;;;;;;;;6140086;28;20023;-93
2023/06/11 16:55:39;;;;;;;5.68;3.88;;;;;;;;;;6141952;28;20263;-91
2023/06/11 16:58:39;;;;;;;4.80;3.42;;;;;;;;;;6140387;28;20046;-90
2023/06/11 17:01:40;;;;;;;7.43;3.67;;;;;;;;;;6136386;28;20024;-90
2023/06/11 17:04:40;;;;;;;8.13;4.50;;;;;;;;;;6138933;28;20544;-89
2023/06/11 17:07:43;;;;;;;7.37;4.30;;;;;;;;;;6147409;28;20568;-90
2023/06/11 17:10:45;;;;;;;9.65;4.05;;;;;;;;;;6147260;28;20046;-89
2023/06/11 17:13:45;;;;;;;5.53;3.43;;;;;;;;;;6143850;28;20030;-89
2023/06/11 17:16:46;;;;;;;6.23;3.93;;;;;;;;;;6141036;28;20027;-91
2023/06/11 17:19:46;;;;;;;6.10;3.67;;;;;;;;;;6160639;28;20651;-91
2023/06/11 17:22:47;;;;;;;6.03;3.20;;;;;;;;;;6149387;28;20038;-91
2023/06/11 17:25:48;;;;;;;5.23;3.47;;;;;;;;;;6167013;28;20042;-91
2023/06/11 17:28:50;;;;;;;8.40;3.83;;;;;;;;;;6152962;28;20286;-91
2023/06/11 17:31:50;;;;;;;;;;;;;;;;;;6162971;28;20041;-92
2023/06/11 17:34:55;;;;;;;5.20;3.60;;;;;;;;;;6188909;23;19967;-82
2023/06/11 17:37:56;;;;;;;6.72;4.38;;;;;;;;;;6151652;28;20621;-82
2023/06/11 17:40:56;;;;;;;6.28;3.55;;;;;;;;;;6151984;28;20019;-83
2023/06/11 17:43:57;;;;;;;8.37;3.37;;;;;;;;;;6169057;28;20480;-83
2023/06/11 17:46:57;;;;;;;10.77;3.90;;;;;;;;;;6169216;28;20027;-82
2023/06/11 17:49:57;;;;;;;6.47;3.53;;;;;;;;;;6169282;28;20399;-83
2023/06/11 17:52:57;;;;;;;7.03;3.92;;;;;;;;;;6168601;28;20114;-82
2023/06/11 17:55:57;;;;;;;10.63;4.33;;;;;;;;;;6166126;28;20323;-83
2023/06/11 17:58:58;;;;;;;6.85;3.75;;;;;;;;;;6169134;28;20370;-83
2023/06/11 18:01:58;;;;;;;8.10;4.03;;;;;;;;;;6147653;28;20037;-83
2023/06/11 18:04:58;;;;;;;4.73;3.27;;;;;;;;;;6164030;28;20036;-83
2023/06/11 18:07:58;;;;;;;5.82;3.78;;;;;;;;;;6145045;28;20077;-82
2023/06/11 18:10:59;;;;;;;10.17;4.03;;;;;;;;;;6151327;28;20063;-83
2023/06/11 18:13:59;;;;;;;7.90;4.23;;;;;;;;;;6129101;28;20030;-83
2023/06/11 18:16:59;;;;;;;7.50;4.63;;;;;;;;;;6141104;28;20103;-83
2023/06/11 18:19:59;;;;;;;6.87;3.83;;;;;;;;;;6137782;28;20050;-83
2023/06/11 18:22:59;;;;;;;7.10;3.33;;;;;;;;;;6139291;28;20023;-82
2023/06/11 18:26:00;;;;;;;6.50;3.93;;;;;;;;;;6156503;28;20490;-85
2023/06/11 18:29:00;;;;;;;6.18;3.78;;;;;;;;;;6147582;28;20020;-84
2023/06/11 18:32:00;;;;;;;8.50;3.90;;;;;;;;;;6135145;28;20118;-84
2023/06/11 18:35:00;;;;;;;7.47;4.70;;;;;;;;;;6117613;28;1141254;-83
2023/06/11 18:38:01;;;;;;;11.43;4.27;;;;;;;;;;6146389;28;20085;-82